sensor_id;sensor_type;location;lat;lon;timestamp;pressure;altitude;pressure_sealevel;temperature
15680;BMP180;15488;48.114;11.532;2023-11-18T00:00:03;96000.00;;;11.80
15680;BMP180;15488;48.114;11.532;2023-11-18T00:02:37;95996.00;;;11.80
15680;BMP180;15488;48.114;11.532;2023-11-18T00:05:05;95998.00;;;11.80
15680;BMP180;15488;48.114;11.532;2023-11-18T00:07:33;96007.00;;;11.90
15680;BMP180;15488;48.114;11.532;2023-11-18T00:10:01;96007.00;;;11.90
15680;BMP180;15488;48.114;11.532;2023-11-18T00:12:28;96003.00;;;11.90
15680;BMP180;15488;48.114;11.532;2023-11-18T00:14:57;96003.00;;;11.90
15680;BMP180;15488;48.114;11.532;2023-11-18T00:17:25;96001.00;;;12.00
15680;BMP180;15488;48.114;11.532;2023-11-18T00:19:52;96008.00;;;12.00
15680;BMP180;15488;48.114;11.532;2023-11-18T00:22:19;95999.00;;;11.90
15680;BMP180;15488;48.114;11.532;2023-11-18T00:24:47;96008.00;;;11.90
15680;BMP180;15488;48.114;11.532;2023-11-18T00:27:14;96014.00;;;11.90
15680;BMP180;15488;48.114;11.532;2023-11-18T00:29:42;96004.00;;;11.90
15680;BMP180;15488;48.114;11.532;2023-11-18T00:32:12;96007.00;;;11.90
15680;BMP180;15488;48.114;11.532;2023-11-18T00:34:39;96007.00;;;11.80
15680;BMP180;15488;48.114;11.532;2023-11-18T00:37:07;96006.00;;;11.80
15680;BMP180;15488;48.114;11.532;2023-11-18T00:39:35;96001.00;;;11.90
15680;BMP180;15488;48.114;11.532;2023-11-18T00:42:04;96014.00;;;11.90
15680;BMP180;15488;48.114;11.532;2023-11-18T00:44:31;96009.00;;;11.90
15680;BMP180;15488;48.114;11.532;2023-11-18T00:47:00;96015.00;;;11.90
15680;BMP180;15488;48.114;11.532;2023-11-18T00:49:30;96017.00;;;11.90
15680;BMP180;15488;48.114;11.532;2023-11-18T00:51:57;96021.00;;;11.90
15680;BMP180;15488;48.114;11.532;2023-11-18T00:54:25;96010.00;;;11.80
15680;BMP180;15488;48.114;11.532;2023-11-18T00:56:53;96012.00;;;11.70
15680;BMP180;15488;48.114;11.532;2023-11-18T00:59:20;96014.00;;;11.70
15680;BMP180;15488;48.114;11.532;2023-11-18T01:01:47;96016.00;;;11.70
15680;BMP180;15488;48.114;11.532;2023-11-18T01:04:15;96015.00;;;11.70
15680;BMP180;15488;48.114;11.532;2023-11-18T01:06:45;96020.00;;;11.70
15680;BMP180;15488;48.114;11.532;2023-11-18T01:09:13;96024.00;;;11.70
15680;BMP180;15488;48.114;11.532;2023-11-18T01:11:42;96025.00;;;11.70
15680;BMP180;15488;48.114;11.532;2023-11-18T01:14:09;96027.00;;;11.70
15680;BMP180;15488;48.114;11.532;2023-11-18T01:16:37;96034.00;;;11.60
15680;BMP180;15488;48.114;11.532;2023-11-18T01:19:05;96027.00;;;11.70
15680;BMP180;15488;48.114;11.532;2023-11-18T01:21:35;96027.00;;;11.60
15680;BMP180;15488;48.114;11.532;2023-11-18T01:24:05;96027.00;;;11.60
15680;BMP180;15488;48.114;11.532;2023-11-18T01:26:36;96034.00;;;11.60
15680;BMP180;15488;48.114;11.532;2023-11-18T01:29:07;96038.00;;;11.60
15680;BMP180;15488;48.114;11.532;2023-11-18T01:31:36;96030.00;;;11.50
15680;BMP180;15488;48.114;11.532;2023-11-18T01:34:07;96038.00;;;11.60
15680;BMP180;15488;48.114;11.532;2023-11-18T01:36:34;96035.00;;;11.60
15680;BMP180;15488;48.114;11.532;2023-11-18T01:39:03;96031.00;;;11.70
15680;BMP180;15488;48.114;11.532;2023-11-18T01:41:33;96041.00;;;11.70
15680;BMP180;15488;48.114;11.532;2023-11-18T01:44:00;96038.00;;;11.70
15680;BMP180;15488;48.114;11.532;2023-11-18T01:46:29;96042.00;;;11.80
15680;BMP180;15488;48.114;11.532;2023-11-18T01:48:56;96043.00;;;11.80
15680;BMP180;15488;48.114;11.532;2023-11-18T01:51:25;96037.00;;;11.80
15680;BMP180;15488;48.114;11.532;2023-11-18T01:53:52;96052.00;;;11.80
15680;BMP180;15488;48.114;11.532;2023-11-18T01:56:22;96045.00;;;11.80
15680;BMP180;15488;48.114;11.532;2023-11-18T01:58:53;96045.00;;;11.80
15680;BMP180;15488;48.114;11.532;2023-11-18T02:01:20;96061.00;;;11.80
15680;BMP180;15488;48.114;11.532;2023-11-18T02:03:48;96049.00;;;11.80
15680;BMP180;15488;48.114;11.532;2023-11-18T02:06:15;96053.00;;;11.80
15680;BMP180;15488;48.114;11.532;2023-11-18T02:08:43;96049.00;;;11.80
15680;BMP180;15488;48.114;11.532;2023-11-18T02:11:17;96053.00;;;11.70
15680;BMP180;15488;48.114;11.532;2023-11-18T02:13:48;96053.00;;;11.80
15680;BMP180;15488;48.114;11.532;2023-11-18T02:16:17;96052.00;;;11.80
15680;BMP180;15488;48.114;11.532;2023-11-18T02:18:46;96062.00;;;11.70
15680;BMP180;15488;48.114;11.532;2023-11-18T02:21:16;96060.00;;;11.70
15680;BMP180;15488;48.114;11.532;2023-11-18T02:23:44;96056.00;;;11.70
15680;BMP180;15488;48.114;11.532;2023-11-18T02:26:21;96059.00;;;11.70
15680;BMP180;15488;48.114;11.532;2023-11-18T02:28:49;96065.00;;;11.80
15680;BMP180;15488;48.114;11.532;2023-11-18T02:31:22;96055.00;;;11.80
15680;BMP180;15488;48.114;11.532;2023-11-18T02:33:57;96067.00;;;11.90
15680;BMP180;15488;48.114;11.532;2023-11-18T02:36:34;96063.00;;;11.90
15680;BMP180;15488;48.114;11.532;2023-11-18T02:39:06;96054.00;;;11.80
15680;BMP180;15488;48.114;11.532;2023-11-18T02:41:40;95981.00;;;11.80
15680;BMP180;15488;48.114;11.532;2023-11-18T02:44:12;96061.00;;;11.80
15680;BMP180;15488;48.114;11.532;2023-11-18T02:46:44;96058.00;;;11.80
15680;BMP180;15488;48.114;11.532;2023-11-18T02:49:11;96055.00;;;11.80
15680;BMP180;15488;48.114;11.532;2023-11-18T02:51:39;96054.00;;;11.80
15680;BMP180;15488;48.114;11.532;2023-11-18T02:54:07;96053.00;;;11.80
15680;BMP180;15488;48.114;11.532;2023-11-18T02:56:38;95977.00;;;11.70
15680;BMP180;15488;48.114;11.532;2023-11-18T02:59:06;96063.00;;;11.70
15680;BMP180;15488;48.114;11.532;2023-11-18T03:01:33;96059.00;;;11.70
15680;BMP180;15488;48.114;11.532;2023-11-18T03:04:01;96054.00;;;11.70
15680;BMP180;15488;48.114;11.532;2023-11-18T03:06:28;96064.00;;;11.70
15680;BMP180;15488;48.114;11.532;2023-11-18T03:08:56;96068.00;;;11.70
15680;BMP180;15488;48.114;11.532;2023-11-18T03:11:24;96064.00;;;11.70
15680;BMP180;15488;48.114;11.532;2023-11-18T03:13:52;96068.00;;;11.70
15680;BMP180;15488;48.114;11.532;2023-11-18T03:16:20;96063.00;;;11.70
15680;BMP180;15488;48.114;11.532;2023-11-18T03:18:48;96070.00;;;11.70
15680;BMP180;15488;48.114;11.532;2023-11-18T03:21:17;96073.00;;;11.70
15680;BMP180;15488;48.114;11.532;2023-11-18T03:23:46;96072.00;;;11.80
15680;BMP180;15488;48.114;11.532;2023-11-18T03:26:14;96070.00;;;11.80
15680;BMP180;15488;48.114;11.532;2023-11-18T03:28:41;96078.00;;;11.80
15680;BMP180;15488;48.114;11.532;2023-11-18T03:31:10;96077.00;;;11.80
15680;BMP180;15488;48.114;11.532;2023-11-18T03:33:38;96079.00;;;11.90
15680;BMP180;15488;48.114;11.532;2023-11-18T03:36:06;96079.00;;;11.80
15680;BMP180;15488;48.114;11.532;2023-11-18T03:38:34;96080.00;;;11.80
15680;BMP180;15488;48.114;11.532;2023-11-18T03:41:02;96086.00;;;11.80
15680;BMP180;15488;48.114;11.532;2023-11-18T03:43:29;96082.00;;;11.80
15680;BMP180;15488;48.114;11.532;2023-11-18T03:45:57;96093.00;;;11.80
15680;BMP180;15488;48.114;11.532;2023-11-18T03:48:25;96090.00;;;11.80
15680;BMP180;15488;48.114;11.532;2023-11-18T03:50:53;96103.00;;;11.80
15680;BMP180;15488;48.114;11.532;2023-11-18T03:53:20;96102.00;;;11.80
15680;BMP180;15488;48.114;11.532;2023-11-18T03:55:48;96100.00;;;11.80
15680;BMP180;15488;48.114;11.532;2023-11-18T03:58:17;96025.00;;;11.80
15680;BMP180;15488;48.114;11.532;2023-11-18T04:00:45;96104.00;;;11.70
15680;BMP180;15488;48.114;11.532;2023-11-18T04:03:12;96111.00;;;11.70
15680;BMP180;15488;48.114;11.532;2023-11-18T04:05:41;96113.00;;;11.60
15680;BMP180;15488;48.114;11.532;2023-11-18T04:08:09;96116.00;;;11.60
15680;BMP180;15488;48.114;11.532;2023-11-18T04:10:37;96112.00;;;11.70
15680;BMP180;15488;48.114;11.532;2023-11-18T04:13:05;96099.00;;;11.70
15680;BMP180;15488;48.114;11.532;2023-11-18T04:15:33;96104.00;;;11.60
15680;BMP180;15488;48.114;11.532;2023-11-18T04:18:01;96102.00;;;11.60
15680;BMP180;15488;48.114;11.532;2023-11-18T04:20:28;96092.00;;;11.60
15680;BMP180;15488;48.114;11.532;2023-11-18T04:22:57;96095.00;;;11.70
15680;BMP180;15488;48.114;11.532;2023-11-18T04:25:25;96103.00;;;11.60
15680;BMP180;15488;48.114;11.532;2023-11-18T04:27:53;96101.00;;;11.60
15680;BMP180;15488;48.114;11.532;2023-11-18T04:30:21;96098.00;;;11.60
15680;BMP180;15488;48.114;11.532;2023-11-18T04:32:48;96092.00;;;11.70
15680;BMP180;15488;48.114;11.532;2023-11-18T04:35:18;96091.00;;;11.70
15680;BMP180;15488;48.114;11.532;2023-11-18T04:37:48;96092.00;;;11.70
15680;BMP180;15488;48.114;11.532;2023-11-18T04:40:17;96093.00;;;11.70
15680;BMP180;15488;48.114;11.532;2023-11-18T04:42:44;96097.00;;;11.80
15680;BMP180;15488;48.114;11.532;2023-11-18T04:45:12;96100.00;;;11.90
15680;BMP180;15488;48.114;11.532;2023-11-18T04:47:40;96096.00;;;11.80
15680;BMP180;15488;48.114;11.532;2023-11-18T04:50:10;96097.00;;;11.80
15680;BMP180;15488;48.114;11.532;2023-11-18T04:52:37;96095.00;;;11.80
15680;BMP180;15488;48.114;11.532;2023-11-18T04:55:06;96091.00;;;11.80
15680;BMP180;15488;48.114;11.532;2023-11-18T04:57:35;96095.00;;;11.80
15680;BMP180;15488;48.114;11.532;2023-11-18T05:00:06;96111.00;;;11.80
15680;BMP180;15488;48.114;11.532;2023-11-18T05:02:38;96105.00;;;11.90
15680;BMP180;15488;48.114;11.532;2023-11-18T05:05:06;96102.00;;;11.90
15680;BMP180;15488;48.114;11.532;2023-11-18T05:07:33;96094.00;;;11.90
15680;BMP180;15488;48.114;11.532;2023-11-18T05:10:01;96108.00;;;11.90
15680;BMP180;15488;48.114;11.532;2023-11-18T05:12:30;96109.00;;;11.90
15680;BMP180;15488;48.114;11.532;2023-11-18T05:14:59;96107.00;;;11.90
15680;BMP180;15488;48.114;11.532;2023-11-18T05:17:27;96112.00;;;11.90
15680;BMP180;15488;48.114;11.532;2023-11-18T05:19:54;96109.00;;;11.90
15680;BMP180;15488;48.114;11.532;2023-11-18T05:22:20;96103.00;;;12.00
15680;BMP180;15488;48.114;11.532;2023-11-18T05:24:48;96095.00;;;12.00
15680;BMP180;15488;48.114;11.532;2023-11-18T05:27:16;96087.00;;;12.00
15680;BMP180;15488;48.114;11.532;2023-11-18T05:29:44;96073.00;;;12.10
15680;BMP180;15488;48.114;11.532;2023-11-18T05:32:16;96083.00;;;12.10
15680;BMP180;15488;48.114;11.532;2023-11-18T05:34:43;96086.00;;;12.10
15680;BMP180;15488;48.114;11.532;2023-11-18T05:37:11;96084.00;;;12.10
15680;BMP180;15488;48.114;11.532;2023-11-18T05:39:38;96090.00;;;12.00
15680;BMP180;15488;48.114;11.532;2023-11-18T05:42:09;96086.00;;;12.10
15680;BMP180;15488;48.114;11.532;2023-11-18T05:44:36;96085.00;;;12.00
15680;BMP180;15488;48.114;11.532;2023-11-18T05:47:05;96084.00;;;12.10
15680;BMP180;15488;48.114;11.532;2023-11-18T05:49:35;96082.00;;;12.10
15680;BMP180;15488;48.114;11.532;2023-11-18T05:52:02;96095.00;;;12.10
15680;BMP180;15488;48.114;11.532;2023-11-18T05:54:30;96092.00;;;12.20
15680;BMP180;15488;48.114;11.532;2023-11-18T05:56:57;96087.00;;;12.20
15680;BMP180;15488;48.114;11.532;2023-11-18T05:59:25;96098.00;;;12.20
15680;BMP180;15488;48.114;11.532;2023-11-18T06:01:55;96104.00;;;12.20
15680;BMP180;15488;48.114;11.532;2023-11-18T06:04:23;96107.00;;;12.20
15680;BMP180;15488;48.114;11.532;2023-11-18T06:06:53;96117.00;;;12.20
15680;BMP180;15488;48.114;11.532;2023-11-18T06:09:20;96122.00;;;12.20
15680;BMP180;15488;48.114;11.532;2023-11-18T06:11:51;96132.00;;;12.20
15680;BMP180;15488;48.114;11.532;2023-11-18T06:14:19;96134.00;;;12.20
15680;BMP180;15488;48.114;11.532;2023-11-18T06:16:47;96140.00;;;12.10
15680;BMP180;15488;48.114;11.532;2023-11-18T06:19:16;96133.00;;;12.10
15680;BMP180;15488;48.114;11.532;2023-11-18T06:21:44;96135.00;;;12.10
15680;BMP180;15488;48.114;11.532;2023-11-18T06:24:13;96137.00;;;12.10
15680;BMP180;15488;48.114;11.532;2023-11-18T06:26:41;96141.00;;;12.20
15680;BMP180;15488;48.114;11.532;2023-11-18T06:29:08;96138.00;;;12.10
15680;BMP180;15488;48.114;11.532;2023-11-18T06:31:35;96129.00;;;12.10
15680;BMP180;15488;48.114;11.532;2023-11-18T06:34:03;96129.00;;;12.10
15680;BMP180;15488;48.114;11.532;2023-11-18T06:36:30;96129.00;;;12.10
15680;BMP180;15488;48.114;11.532;2023-11-18T06:38:58;96128.00;;;12.10
15680;BMP180;15488;48.114;11.532;2023-11-18T06:41:27;96135.00;;;12.10
15680;BMP180;15488;48.114;11.532;2023-11-18T06:44:00;96136.00;;;12.20
15680;BMP180;15488;48.114;11.532;2023-11-18T06:46:35;96125.00;;;12.20
15680;BMP180;15488;48.114;11.532;2023-11-18T06:49:08;96129.00;;;12.20
15680;BMP180;15488;48.114;11.532;2023-11-18T06:51:39;96128.00;;;11.90
15680;BMP180;15488;48.114;11.532;2023-11-18T06:54:06;96134.00;;;12.20
15680;BMP180;15488;48.114;11.532;2023-11-18T06:56:38;96126.00;;;12.20
15680;BMP180;15488;48.114;11.532;2023-11-18T06:59:06;96132.00;;;12.20
15680;BMP180;15488;48.114;11.532;2023-11-18T07:01:33;96135.00;;;12.20
15680;BMP180;15488;48.114;11.532;2023-11-18T07:04:01;96133.00;;;12.30
15680;BMP180;15488;48.114;11.532;2023-11-18T07:06:29;96140.00;;;12.30
15680;BMP180;15488;48.114;11.532;2023-11-18T07:08:57;96148.00;;;12.20
15680;BMP180;15488;48.114;11.532;2023-11-18T07:11:26;96133.00;;;12.30
15680;BMP180;15488;48.114;11.532;2023-11-18T07:13:55;96141.00;;;12.30
15680;BMP180;15488;48.114;11.532;2023-11-18T07:16:23;96135.00;;;12.30
15680;BMP180;15488;48.114;11.532;2023-11-18T07:18:51;96141.00;;;12.40
15680;BMP180;15488;48.114;11.532;2023-11-18T07:21:19;96140.00;;;12.40
15680;BMP180;15488;48.114;11.532;2023-11-18T07:23:46;96137.00;;;12.50
15680;BMP180;15488;48.114;11.532;2023-11-18T07:26:14;96143.00;;;12.50
15680;BMP180;15488;48.114;11.532;2023-11-18T07:28:42;96136.00;;;12.50
15680;BMP180;15488;48.114;11.532;2023-11-18T07:31:11;96140.00;;;12.50
15680;BMP180;15488;48.114;11.532;2023-11-18T07:33:38;96138.00;;;12.60
15680;BMP180;15488;48.114;11.532;2023-11-18T07:36:07;96156.00;;;12.60
15680;BMP180;15488;48.114;11.532;2023-11-18T07:38:37;96155.00;;;12.60
15680;BMP180;15488;48.114;11.532;2023-11-18T07:41:05;96151.00;;;12.60
15680;BMP180;15488;48.114;11.532;2023-11-18T07:43:34;96153.00;;;12.60
15680;BMP180;15488;48.114;11.532;2023-11-18T07:46:04;96159.00;;;12.60
15680;BMP180;15488;48.114;11.532;2023-11-18T07:48:35;96155.00;;;12.70
15680;BMP180;15488;48.114;11.532;2023-11-18T07:51:03;96155.00;;;12.70
15680;BMP180;15488;48.114;11.532;2023-11-18T07:53:30;96157.00;;;12.70
15680;BMP180;15488;48.114;11.532;2023-11-18T07:55:58;96156.00;;;12.80
15680;BMP180;15488;48.114;11.532;2023-11-18T07:58:28;96155.00;;;12.70
15680;BMP180;15488;48.114;11.532;2023-11-18T08:00:58;96151.00;;;12.80
15680;BMP180;15488;48.114;11.532;2023-11-18T08:03:26;96146.00;;;12.30
15680;BMP180;15488;48.114;11.532;2023-11-18T08:05:55;96148.00;;;12.80
15680;BMP180;15488;48.114;11.532;2023-11-18T08:08:24;96157.00;;;12.80
15680;BMP180;15488;48.114;11.532;2023-11-18T08:10:51;96159.00;;;12.90
15680;BMP180;15488;48.114;11.532;2023-11-18T08:13:21;96167.00;;;12.80
15680;BMP180;15488;48.114;11.532;2023-11-18T08:15:49;96164.00;;;12.90
15680;BMP180;15488;48.114;11.532;2023-11-18T08:18:18;96160.00;;;13.00
15680;BMP180;15488;48.114;11.532;2023-11-18T08:20:47;96157.00;;;13.00
15680;BMP180;15488;48.114;11.532;2023-11-18T08:23:16;96157.00;;;13.00
15680;BMP180;15488;48.114;11.532;2023-11-18T08:25:45;96162.00;;;13.10
15680;BMP180;15488;48.114;11.532;2023-11-18T08:28:12;96165.00;;;13.10
15680;BMP180;15488;48.114;11.532;2023-11-18T08:30:40;96151.00;;;13.00
15680;BMP180;15488;48.114;11.532;2023-11-18T08:33:08;96164.00;;;13.10
15680;BMP180;15488;48.114;11.532;2023-11-18T08:35:35;96172.00;;;13.10
15680;BMP180;15488;48.114;11.532;2023-11-18T08:38:03;96181.00;;;13.10
15680;BMP180;15488;48.114;11.532;2023-11-18T08:40:34;96175.00;;;13.20
15680;BMP180;15488;48.114;11.532;2023-11-18T08:43:02;96183.00;;;13.10
15680;BMP180;15488;48.114;11.532;2023-11-18T08:45:31;96181.00;;;13.10
15680;BMP180;15488;48.114;11.532;2023-11-18T08:48:00;96171.00;;;13.10
15680;BMP180;15488;48.114;11.532;2023-11-18T08:50:28;96167.00;;;13.20
15680;BMP180;15488;48.114;11.532;2023-11-18T08:52:57;96161.00;;;13.30
15680;BMP180;15488;48.114;11.532;2023-11-18T08:55:25;96149.00;;;13.30
15680;BMP180;15488;48.114;11.532;2023-11-18T08:58:06;96156.00;;;13.40
15680;BMP180;15488;48.114;11.532;2023-11-18T09:00:45;96150.00;;;13.40
15680;BMP180;15488;48.114;11.532;2023-11-18T09:03:19;96168.00;;;13.40
15680;BMP180;15488;48.114;11.532;2023-11-18T09:05:54;96169.00;;;13.50
15680;BMP180;15488;48.114;11.532;2023-11-18T09:08:27;96160.00;;;13.50
15680;BMP180;15488;48.114;11.532;2023-11-18T09:10:55;96155.00;;;13.60
15680;BMP180;15488;48.114;11.532;2023-11-18T09:13:26;96159.00;;;13.60
15680;BMP180;15488;48.114;11.532;2023-11-18T09:15:55;96155.00;;;13.60
15680;BMP180;15488;48.114;11.532;2023-11-18T09:18:23;96156.00;;;13.60
15680;BMP180;15488;48.114;11.532;2023-11-18T09:20:52;96158.00;;;13.60
15680;BMP180;15488;48.114;11.532;2023-11-18T09:23:21;96154.00;;;13.70
15680;BMP180;15488;48.114;11.532;2023-11-18T09:25:51;96152.00;;;13.90
15680;BMP180;15488;48.114;11.532;2023-11-18T09:28:19;96159.00;;;13.80
15680;BMP180;15488;48.114;11.532;2023-11-18T09:30:49;96157.00;;;13.90
15680;BMP180;15488;48.114;11.532;2023-11-18T09:33:20;96158.00;;;14.00
15680;BMP180;15488;48.114;11.532;2023-11-18T09:35:55;96161.00;;;14.10
15680;BMP180;15488;48.114;11.532;2023-11-18T09:38:27;96151.00;;;14.10
15680;BMP180;15488;48.114;11.532;2023-11-18T09:40:57;96155.00;;;14.20
15680;BMP180;15488;48.114;11.532;2023-11-18T09:43:29;96149.00;;;14.20
15680;BMP180;15488;48.114;11.532;2023-11-18T09:46:04;96148.00;;;14.30
15680;BMP180;15488;48.114;11.532;2023-11-18T09:48:42;96146.00;;;14.30
15680;BMP180;15488;48.114;11.532;2023-11-18T09:51:17;96150.00;;;14.30
15680;BMP180;15488;48.114;11.532;2023-11-18T09:53:50;96138.00;;;14.20
15680;BMP180;15488;48.114;11.532;2023-11-18T09:56:23;96153.00;;;14.30
15680;BMP180;15488;48.114;11.532;2023-11-18T09:59:08;96155.00;;;14.40
15680;BMP180;15488;48.114;11.532;2023-11-18T10:01:43;96154.00;;;14.50
15680;BMP180;15488;48.114;11.532;2023-11-18T10:04:13;96146.00;;;14.60
15680;BMP180;15488;48.114;11.532;2023-11-18T10:06:45;96153.00;;;14.60
15680;BMP180;15488;48.114;11.532;2023-11-18T10:09:14;96080.00;;;14.60
15680;BMP180;15488;48.114;11.532;2023-11-18T10:11:54;96146.00;;;14.60
15680;BMP180;15488;48.114;11.532;2023-11-18T10:14:26;96145.00;;;14.60
15680;BMP180;15488;48.114;11.532;2023-11-18T10:16:55;96138.00;;;14.50
15680;BMP180;15488;48.114;11.532;2023-11-18T10:19:23;96137.00;;;14.60
15680;BMP180;15488;48.114;11.532;2023-11-18T10:21:52;96137.00;;;14.60
15680;BMP180;15488;48.114;11.532;2023-11-18T10:24:22;96125.00;;;14.60
15680;BMP180;15488;48.114;11.532;2023-11-18T10:26:57;96119.00;;;14.60
15680;BMP180;15488;48.114;11.532;2023-11-18T10:29:25;96115.00;;;14.60
15680;BMP180;15488;48.114;11.532;2023-11-18T10:32:05;96120.00;;;14.70
15680;BMP180;15488;48.114;11.532;2023-11-18T10:34:35;96113.00;;;14.80
15680;BMP180;15488;48.114;11.532;2023-11-18T10:37:03;96107.00;;;14.80
15680;BMP180;15488;48.114;11.532;2023-11-18T10:39:33;96101.00;;;14.70
15680;BMP180;15488;48.114;11.532;2023-11-18T10:42:02;96096.00;;;14.80
15680;BMP180;15488;48.114;11.532;2023-11-18T10:44:29;96099.00;;;14.90
15680;BMP180;15488;48.114;11.532;2023-11-18T10:46:57;96104.00;;;15.00
15680;BMP180;15488;48.114;11.532;2023-11-18T10:49:27;96109.00;;;15.10
15680;BMP180;15488;48.114;11.532;2023-11-18T10:51:55;96114.00;;;15.20
15680;BMP180;15488;48.114;11.532;2023-11-18T10:54:23;96128.00;;;15.20
15680;BMP180;15488;48.114;11.532;2023-11-18T10:56:52;96124.00;;;15.20
15680;BMP180;15488;48.114;11.532;2023-11-18T10:59:23;96121.00;;;15.10
15680;BMP180;15488;48.114;11.532;2023-11-18T11:01:51;96125.00;;;15.10
15680;BMP180;15488;48.114;11.532;2023-11-18T11:04:19;96121.00;;;15.20
15680;BMP180;15488;48.114;11.532;2023-11-18T11:06:49;96119.00;;;15.10
15680;BMP180;15488;48.114;11.532;2023-11-18T11:09:23;96123.00;;;15.30
15680;BMP180;15488;48.114;11.532;2023-11-18T11:11:54;96117.00;;;15.30
15680;BMP180;15488;48.114;11.532;2023-11-18T11:14:28;96118.00;;;15.20
15680;BMP180;15488;48.114;11.532;2023-11-18T11:17:05;96131.00;;;15.30
15680;BMP180;15488;48.114;11.532;2023-11-18T11:19:41;96124.00;;;15.40
15680;BMP180;15488;48.114;11.532;2023-11-18T11:22:19;96121.00;;;15.40
15680;BMP180;15488;48.114;11.532;2023-11-18T11:24:58;96117.00;;;15.40
15680;BMP180;15488;48.114;11.532;2023-11-18T11:27:50;96126.00;;;15.30
15680;BMP180;15488;48.114;11.532;2023-11-18T11:30:29;96134.00;;;15.40
15680;BMP180;15488;48.114;11.532;2023-11-18T11:33:05;96140.00;;;15.30
15680;BMP180;15488;48.114;11.532;2023-11-18T11:35:39;96143.00;;;15.20
15680;BMP180;15488;48.114;11.532;2023-11-18T11:38:12;96138.00;;;15.20
15680;BMP180;15488;48.114;11.532;2023-11-18T11:40:42;96140.00;;;15.30
15680;BMP180;15488;48.114;11.532;2023-11-18T11:43:11;96133.00;;;15.30
15680;BMP180;15488;48.114;11.532;2023-11-18T11:45:42;96130.00;;;15.30
15680;BMP180;15488;48.114;11.532;2023-11-18T11:48:13;96127.00;;;15.40
15680;BMP180;15488;48.114;11.532;2023-11-18T11:50:55;96113.00;;;15.30
15680;BMP180;15488;48.114;11.532;2023-11-18T11:53:34;96110.00;;;15.40
15680;BMP180;15488;48.114;11.532;2023-11-18T11:56:06;96107.00;;;15.40
15680;BMP180;15488;48.114;11.532;2023-11-18T11:58:36;96111.00;;;15.50
15680;BMP180;15488;48.114;11.532;2023-11-18T12:01:18;96109.00;;;15.50
15680;BMP180;15488;48.114;11.532;2023-11-18T12:03:50;96109.00;;;15.60
15680;BMP180;15488;48.114;11.532;2023-11-18T12:06:23;96099.00;;;15.70
15680;BMP180;15488;48.114;11.532;2023-11-18T12:08:54;96097.00;;;15.60
15680;BMP180;15488;48.114;11.532;2023-11-18T12:11:22;96094.00;;;15.60
15680;BMP180;15488;48.114;11.532;2023-11-18T12:14:05;96085.00;;;15.60
15680;BMP180;15488;48.114;11.532;2023-11-18T12:17:03;96086.00;;;15.70
15680;BMP180;15488;48.114;11.532;2023-11-18T12:19:40;96096.00;;;15.80
15680;BMP180;15488;48.114;11.532;2023-11-18T12:22:15;96095.00;;;15.80
15680;BMP180;15488;48.114;11.532;2023-11-18T12:28:15;96084.00;;;15.80
15680;BMP180;15488;48.114;11.532;2023-11-18T12:30:48;96075.00;;;15.80
15680;BMP180;15488;48.114;11.532;2023-11-18T12:34:01;96066.00;;;15.90
15680;BMP180;15488;48.114;11.532;2023-11-18T12:36:56;96068.00;;;15.90
15680;BMP180;15488;48.114;11.532;2023-11-18T12:39:49;96062.00;;;15.90
15680;BMP180;15488;48.114;11.532;2023-11-18T12:45:43;96056.00;;;16.10
15680;BMP180;15488;48.114;11.532;2023-11-18T12:48:14;96039.00;;;16.20
15680;BMP180;15488;48.114;11.532;2023-11-18T12:50:42;96040.00;;;16.30
15680;BMP180;15488;48.114;11.532;2023-11-18T12:53:12;96037.00;;;16.20
15680;BMP180;15488;48.114;11.532;2023-11-18T12:55:41;96045.00;;;16.30
15680;BMP180;15488;48.114;11.532;2023-11-18T12:58:09;96034.00;;;16.30
15680;BMP180;15488;48.114;11.532;2023-11-18T13:00:41;96033.00;;;16.40
15680;BMP180;15488;48.114;11.532;2023-11-18T13:03:11;96041.00;;;16.50
15680;BMP180;15488;48.114;11.532;2023-11-18T13:05:41;96045.00;;;16.50
15680;BMP180;15488;48.114;11.532;2023-11-18T13:08:09;96042.00;;;16.60
15680;BMP180;15488;48.114;11.532;2023-11-18T13:10:37;96028.00;;;16.70
15680;BMP180;15488;48.114;11.532;2023-11-18T13:13:04;96023.00;;;16.90
15680;BMP180;15488;48.114;11.532;2023-11-18T13:15:35;96014.00;;;17.00
15680;BMP180;15488;48.114;11.532;2023-11-18T13:18:05;96018.00;;;17.10
15680;BMP180;15488;48.114;11.532;2023-11-18T13:20:33;96018.00;;;17.20
15680;BMP180;15488;48.114;11.532;2023-11-18T13:23:01;96012.00;;;17.20
15680;BMP180;15488;48.114;11.532;2023-11-18T13:25:34;96020.00;;;17.20
15680;BMP180;15488;48.114;11.532;2023-11-18T13:28:05;96009.00;;;17.20
15680;BMP180;15488;48.114;11.532;2023-11-18T13:30:33;96006.00;;;17.20
15680;BMP180;15488;48.114;11.532;2023-11-18T13:33:01;95999.00;;;17.10
15680;BMP180;15488;48.114;11.532;2023-11-18T13:35:31;96003.00;;;17.00
15680;BMP180;15488;48.114;11.532;2023-11-18T13:37:58;96002.00;;;17.00
15680;BMP180;15488;48.114;11.532;2023-11-18T13:40:26;96003.00;;;16.90
15680;BMP180;15488;48.114;11.532;2023-11-18T13:43:05;96006.00;;;16.80
15680;BMP180;15488;48.114;11.532;2023-11-18T13:45:34;95998.00;;;16.80
15680;BMP180;15488;48.114;11.532;2023-11-18T13:48:02;95994.00;;;16.70
15680;BMP180;15488;48.114;11.532;2023-11-18T13:50:34;95993.00;;;16.60
15680;BMP180;15488;48.114;11.532;2023-11-18T13:53:03;95985.00;;;16.50
15680;BMP180;15488;48.114;11.532;2023-11-18T13:55:32;95992.00;;;16.50
15680;BMP180;15488;48.114;11.532;2023-11-18T13:57:59;95997.00;;;16.50
15680;BMP180;15488;48.114;11.532;2023-11-18T14:00:27;95992.00;;;16.50
15680;BMP180;15488;48.114;11.532;2023-11-18T14:02:56;95992.00;;;16.50
15680;BMP180;15488;48.114;11.532;2023-11-18T14:05:24;95989.00;;;16.40
15680;BMP180;15488;48.114;11.532;2023-11-18T14:07:54;95985.00;;;16.40
15680;BMP180;15488;48.114;11.532;2023-11-18T14:10:25;95986.00;;;16.30
15680;BMP180;15488;48.114;11.532;2023-11-18T14:13:00;95985.00;;;16.40
15680;BMP180;15488;48.114;11.532;2023-11-18T14:15:28;95976.00;;;16.50
15680;BMP180;15488;48.114;11.532;2023-11-18T14:17:57;95979.00;;;16.50